Time;durP1;ratioP1;P1;durP2;ratioP2;P2;SDS_P1;SDS_P2;PMS_P1;PMS_P2;Temp;Humidity;BMP_temperature;BMP_pressure;BME280_temperature;BME280_humidity;BME280_pressure;Samples;Min_cycle;Max_cycle;Signal;HPM_P1;HPM_P2
2022/02/10 00:03:07;;;;;;;1.20;1.20;;;;;;;1.46;100.00;99587.13;4917279;29;20032;-71
2022/02/10 00:07:07;;;;;;;1.00;1.00;;;;;;;1.34;100.00;99586.72;4936058;29;20477;-72
2022/02/10 00:15:41;;;;;;;0.90;0.90;;;;;;;1.11;100.00;99573.22;4936214;29;20047;-72
2022/02/10 00:20:52;;;;;;;1.48;1.38;;;;;;;1.07;100.00;99573.97;4935683;29;20393;-71
2022/02/10 00:34:11;;;;;;;1.40;1.33;;;;;;;0.97;100.00;99577.03;4935751;29;20126;-71
2022/02/10 00:34:32;;;;;;;3.05;1.73;;;;;;;0.90;100.00;99572.53;4918212;29;20038;-71
2022/02/10 00:37:11;;;;;;;0.80;0.80;;;;;;;0.83;100.00;99570.59;4916302;29;20115;-71
2022/02/10 00:42:21;;;;;;;1.55;1.55;;;;;;;0.79;100.00;99568.75;4916403;29;20119;-71
2022/02/10 00:44:46;;;;;;;1.10;1.10;;;;;;;0.81;100.00;99564.56;4916580;29;20450;-71
2022/02/10 00:47:11;;;;;;;0.88;0.88;;;;;;;0.75;100.00;99566.09;4916182;29;20454;-71
2022/02/10 00:49:37;;;;;;;4.43;1.40;;;;;;;0.69;100.00;99563.34;4916222;29;20034;-71
2022/02/10 00:52:05;;;;;;;0.70;0.70;;;;;;;0.69;100.00;99563.34;4916314;29;20028;-71
2022/02/10 00:54:31;;;;;;;0.88;0.88;;;;;;;0.66;100.00;99563.22;4916057;29;20119;-71
2022/02/10 00:56:57;;;;;;;0.88;0.88;;;;;;;0.69;100.00;99562.47;4916005;29;20108;-71
2022/02/10 00:59:39;;;;;;;1.38;1.38;;;;;;;0.58;100.00;99564.66;4916168;29;20076;-71
2022/02/10 05:23:26;;;;;;;2.17;2.08;;;;;;;-1.02;100.00;99434.88;4915890;29;20091;-66
2022/02/10 05:33:54;;;;;;;1.88;1.45;;;;;;;-0.90;100.00;99424.34;4923588;29;20028;-67
2022/02/10 05:36:24;;;;;;;1.13;1.02;;;;;;;-0.89;100.00;99433.69;4934551;29;20107;-67
2022/02/10 05:39:07;;;;;;;0.80;0.80;;;;;;;-0.94;100.00;99428.44;4934757;29;20107;-67
2022/02/10 05:44:23;;;;;;;1.17;1.17;;;;;;;-0.88;100.00;99428.66;4934807;29;20039;-67
2022/02/10 05:57:15;;;;;;;1.08;1.08;;;;;;;-0.65;100.00;99418.47;4934398;29;20175;-67
2022/02/10 06:03:05;;;;;;;1.30;1.23;;;;;;;-0.58;100.00;99417.88;4931946;29;20047;-67
2022/02/10 06:51:19;;;;;;;1.67;1.60;;;;;;;-0.85;100.00;99454.22;4937644;29;20027;-67
2022/02/10 06:56:46;;;;;;;2.90;2.55;;;;;;;-0.81;100.00;99450.97;4937178;29;20099;-67
2022/02/10 07:50:18;;;;;;;3.28;3.08;;;;;;;0.21;95.58;99400.28;4936678;29;20042;-67
2022/02/10 09:13:43;;;;;;;3.47;2.45;;;;;;;20.27;31.79;99373.97;4934994;29;20058;-68
2022/02/10 10:02:25;;;;;;;3.92;0.77;;;;;;;19.39;32.37;99382.38;4915466;29;20441;-68
2022/02/10 10:05:42;;;;;;;1.17;0.90;;;;;;;19.91;32.16;99377.41;4918999;29;20028;-68
2022/02/10 10:07:54;;;;;;;0.90;0.57;;;;;;;20.28;31.39;99384.44;4917401;29;20119;-68
2022/02/10 10:51:17;;;;;;;1.10;1.00;;;;;;;11.04;53.17;99402.94;4937682;29;20520;-68
2022/02/10 10:56:17;;;;;;;0.95;0.95;;;;;;;10.60;55.35;99394.72;4937453;29;20044;-68
2022/02/10 10:59:08;;;;;;;1.23;1.13;;;;;;;11.07;54.59;99387.34;4937523;29;20396;-68
2022/02/10 11:05:29;;;;;;;5.75;1.63;;;;;;;11.92;52.58;99369.06;4927993;29;20039;-68
2022/02/10 11:38:12;;;;;;;5.18;1.50;;;;;;;13.90;46.90;99335.13;4936578;29;20127;-71
2022/02/10 11:43:44;;;;;;;3.00;0.93;;;;;;;13.79;48.36;99344.94;4936735;29;20038;-71
2022/02/10 14:14:34;;;;;;;;;;;;;;;8.47;70.32;99378.28;4938772;29;19975;-68
2022/02/10 14:17:06;;;;;;;;;;;;;;;8.22;69.83;99379.97;4938151;29;19918;-68
2022/02/10 14:19:57;;;;;;;;;;;;;;;8.08;70.66;99384.22;4938548;29;19915;-68
2022/02/10 14:22:37;;;;;;;;;;;;;;;8.03;71.61;99379.94;4938577;29;20343;-68
2022/02/10 14:27:47;;;;;;;;;;;;;;;8.24;70.87;99390.28;4938254;29;19958;-68
2022/02/10 14:30:14;;;;;;;;;;;;;;;8.04;71.55;99386.81;4938349;29;19910;-68
2022/02/10 14:32:43;;;;;;;;;;;;;;;7.94;71.75;99397.09;4934504;29;20336;-68
2022/02/10 14:35:16;;;;;;;;;;;;;;;7.95;71.63;99406.56;4930391;29;19917;-68
2022/02/10 15:20:51;;;;;;;;;;;;;;;7.14;74.24;99405.34;4918360;29;20047;-67
2022/02/10 15:21:44;;;;;;;;;;;;;;;7.17;74.68;99405.38;4918418;29;19915;-67
2022/02/10 16:18:14;;;;;;;;;;;;;;;7.06;75.70;99396.69;4917442;29;19978;-67
2022/02/10 16:20:46;;;;;;;;;;;;;;;7.10;76.11;99398.44;4917257;29;20285;-67
2022/02/10 16:23:17;;;;;;;;;;;;;;;7.14;75.58;99395.91;4917304;29;19915;-67
2022/02/10 16:25:48;;;;;;;;;;;;;;;7.15;75.75;99396.75;4917210;29;20293;-67
2022/02/10 16:28:29;;;;;;;;;;;;;;;7.03;76.04;99397.56;4916068;29;19911;-67
2022/02/10 16:30:55;;;;;;;;;;;;;;;7.12;76.01;99391.59;4917098;29;20380;-67
2022/02/10 16:33:20;;;;;;;;;;;;;;;7.00;75.90;99391.53;4924745;29;19911;-67
2022/02/10 16:35:45;;;;;;;;;;;;;;;6.91;75.87;99393.19;4929607;29;19910;-67
2022/02/10 16:38:11;;;;;;;;;;;;;;;6.88;75.58;99393.16;4935968;29;19914;-67
2022/02/10 16:40:38;;;;;;;;;;;;;;;6.88;75.73;99398.31;4935955;29;19914;-67
2022/02/10 16:43:03;;;;;;;;;;;;;;;6.89;76.04;99405.19;4935927;29;20290;-70
2022/02/10 16:45:28;;;;;;;;;;;;;;;6.85;75.49;99398.28;4935825;29;20009;-70
2022/02/10 16:47:54;;;;;;;;;;;;;;;6.85;76.45;99398.28;4935294;29;19911;-71
2022/02/10 16:50:20;;;;;;;;;;;;;;;6.79;77.38;99398.25;4935694;29;19960;-70
2022/02/10 16:52:50;;;;;;;;;;;;;;;6.89;76.67;99394.88;4935736;29;19910;-70
2022/02/10 16:55:31;;;;;;;;;;;;;;;6.81;76.62;99396.53;4935707;29;19949;-70
2022/02/10 16:58:16;;;;;;;;;;;;;;;6.81;76.95;99396.53;4935416;29;19918;-71
2022/02/10 17:32:23;;;;;;;;;;;;;;;7.03;71.35;99391.53;4927938;23;19923;-71
2022/02/10 17:35:16;;;;;;;;;;;;;;;6.95;71.94;99397.50;4927214;29;20414;-70
2022/02/10 17:43:59;;;;;;;;;;;;;;;7.17;71.25;99401.09;4935249;29;19917;-70
2022/02/10 17:46:13;;;;;;;;;;;;;;;7.22;70.88;99403.69;4934795;29;20021;-71
2022/02/10 17:51:30;;;;;;;;;;;;;;;7.11;71.85;99407.94;4935109;29;20402;-70
2022/02/10 17:53:56;;;;;;;;;;;;;;;7.10;71.60;99398.44;4935229;29;19911;-70
2022/02/10 17:56:23;;;;;;;;;;;;;;;7.14;70.18;99402.78;4934940;29;20398;-70
2022/02/10 17:58:48;;;;;;;;;;;;;;;7.07;70.09;99401.88;4934990;29;20380;-70
2022/02/10 18:01:14;;;;;;;;;;;;;;;7.08;70.40;99406.19;4934465;29;20024;-70
2022/02/10 18:03:39;;;;;;;;;;;;;;;7.20;69.84;99410.53;4924735;29;20447;-70
2022/02/10 18:08:39;;;;;;;;;;;;;;;7.19;69.82;99403.66;4930598;29;19958;-70
2022/02/10 18:13:59;;;;;;;;;;;;;;;7.09;69.72;99401.88;4930814;29;19975;-70
2022/02/10 18:16:50;;;;;;;;;;;;;;;7.21;69.40;99401.97;4925525;29;19915;-70
2022/02/10 19:02:34;;;;;;;;;;;;;;;6.79;70.09;99390.53;4930105;29;19922;-69
2022/02/10 19:09:47;;;;;;;;;;;;;;;6.63;71.30;99401.59;4937802;29;20298;-69
2022/02/10 19:12:19;;;;;;;;;;;;;;;6.62;71.48;99394.69;4937705;29;19911;-69
2022/02/10 19:14:52;;;;;;;;;;;;;;;6.67;71.05;99395.56;4937737;29;19911;-69
2022/02/10 19:17:18;;;;;;;;;;;;;;;6.57;71.59;99392.06;4937354;29;20354;-69
2022/02/10 19:19:43;;;;;;;;;;;;;;;6.53;72.72;99394.63;4937571;29;19997;-69
2022/02/10 19:22:08;;;;;;;;;;;;;;;6.58;71.87;99388.66;4937246;29;19921;-69
2022/02/10 19:24:34;;;;;;;;;;;;;;;6.38;72.50;99385.94;4937654;29;19917;-69
2022/02/10 19:26:59;;;;;;;;;;;;;;;6.27;72.63;99390.09;4937309;29;19910;-69
2022/02/10 19:29:25;;;;;;;;;;;;;;;6.17;73.85;99385.72;4937252;29;19910;-69
2022/02/10 19:31:52;;;;;;;;;;;;;;;6.11;74.96;99391.69;4928183;29;20015;-69
2022/02/10 19:34:18;;;;;;;;;;;;;;;6.11;73.44;99394.25;4925869;29;20295;-69
2022/02/10 19:36:43;;;;;;;;;;;;;;;6.02;73.58;99393.28;4918001;29;19911;-69
2022/02/10 19:39:12;;;;;;;;;;;;;;;6.04;74.01;99394.16;4918301;29;20036;-69
2022/02/10 19:41:41;;;;;;;;;;;;;;;6.06;74.22;99393.34;4918220;29;19981;-69
2022/02/10 19:44:07;;;;;;;;;;;;;;;6.05;73.90;99390.78;4918079;29;19967;-69
2022/02/10 19:46:33;;;;;;;;;;;;;;;6.07;73.88;99381.34;4917770;29;20296;-69
2022/02/10 19:48:58;;;;;;;;;;;;;;;6.00;74.13;99380.44;4917981;29;19918;-69
2022/02/10 19:51:23;;;;;;;;;;;;;;;5.96;74.12;99372.66;4917842;29;19965;-69
2022/02/10 19:53:49;;;;;;;;;;;;;;;5.92;74.32;99375.19;4918147;29;20006;-69
2022/02/10 19:56:15;;;;;;;;;;;;;;;5.86;74.50;99374.25;4917887;29;19914;-69
2022/02/10 19:58:40;;;;;;;;;;;;;;;5.78;74.42;99363.00;4917753;29;20069;-69
2022/02/10 20:01:06;;;;;;;;;;;;;;;5.71;74.86;99364.66;4924801;29;20009;-69
2022/02/10 20:03:34;;;;;;;;;;;;;;;5.69;75.18;99358.63;4920786;29;19958;-69
2022/02/10 20:06:00;;;;;;;;;;;;;;;5.63;75.26;99361.13;4921948;28;19911;-69
2022/02/10 20:08:26;;;;;;;;;;;;;;;5.60;75.09;99361.09;4917875;29;19915;-69
2022/02/10 20:10:55;;;;;;;;;;;;;;;5.65;74.62;99360.28;4917619;29;20484;-69
2022/02/10 20:13:28;;;;;;;;;;;;;;;5.64;75.42;99357.72;4917515;29;19914;-70
2022/02/10 20:15:54;;;;;;;;;;;;;;;5.60;74.63;99346.53;4917371;29;19918;-69
2022/02/10 20:18:20;;;;;;;;;;;;;;;5.51;75.08;99361.88;4917378;29;20436;-69
2022/02/10 20:20:46;;;;;;;;;;;;;;;5.46;75.47;99355.78;4917390;29;19997;-71
2022/02/10 20:23:12;;;;;;;;;;;;;;;5.47;75.85;99352.41;4917321;29;19918;-70
2022/02/10 20:25:37;;;;;;;;;;;;;;;5.35;75.87;99350.53;4917237;29;19911;-70
2022/02/10 20:28:06;;;;;;;;;;;;;;;5.39;75.67;99357.44;4917143;29;19994;-70
2022/02/10 20:30:32;;;;;;;;;;;;;;;5.36;76.21;99354.81;4919691;29;19915;-69
2022/02/10 20:32:57;;;;;;;;;;;;;;;5.39;75.46;99354.88;4921016;29;20368;-70
2022/02/10 20:35:23;;;;;;;;;;;;;;;5.30;76.15;99357.31;4934614;29;19966;-70
2022/02/10 20:37:48;;;;;;;;;;;;;;;5.34;76.49;99346.25;4935852;29;19954;-70
2022/02/10 20:40:13;;;;;;;;;;;;;;;5.29;76.72;99350.47;4936021;29;19910;-70
2022/02/10 20:42:39;;;;;;;;;;;;;;;5.25;78.09;99350.41;4936372;29;20331;-70
2022/02/10 20:45:06;;;;;;;;;;;;;;;5.37;76.77;99348.84;4936003;29;20347;-70
2022/02/10 20:47:31;;;;;;;;;;;;;;;5.54;75.93;99335.31;4930051;29;19915;-70
2022/02/10 20:49:56;;;;;;;;;;;;;;;5.34;76.44;99343.66;4927852;29;19915;-69
2022/02/10 20:52:21;;;;;;;;;;;;;;;5.28;76.71;99342.75;4935666;29;19918;-70
2022/02/10 20:54:47;;;;;;;;;;;;;;;5.26;76.77;99341.84;4935839;29;19918;-70
2022/02/10 20:57:13;;;;;;;;;;;;;;;5.24;77.21;99339.25;4935169;29;19918;-70
2022/02/10 20:59:43;;;;;;;;;;;;;;;5.25;77.02;99333.28;4935532;29;19917;-69
2022/02/10 21:02:12;;;;;;;;;;;;;;;5.25;77.03;99337.56;4924171;29;20384;-70
2022/02/10 21:04:44;;;;;;;;;;;;;;;5.29;77.02;99334.19;4924593;29;19986;-69
2022/02/10 21:07:15;;;;;;;;;;;;;;;5.21;77.36;99331.50;4916456;29;19918;-69
2022/02/10 21:09:49;;;;;;;;;;;;;;;5.44;77.24;99323.22;4916747;29;19971;-70
2022/02/10 21:12:15;;;;;;;;;;;;;;;5.29;77.57;99319.63;4916448;29;19911;-70
2022/02/10 21:14:41;;;;;;;;;;;;;;;5.33;77.83;99320.53;4916473;29;19915;-70
2022/02/10 21:17:12;;;;;;;;;;;;;;;5.25;77.43;99325.56;4915154;29;19917;-70
2022/02/10 21:19:38;;;;;;;;;;;;;;;5.36;77.41;99315.41;4916621;29;19989;-70
2022/02/10 21:22:09;;;;;;;;;;;;;;;5.32;77.96;99313.69;4916358;29;19915;-70
2022/02/10 21:24:39;;;;;;;;;;;;;;;5.27;78.87;99305.91;4916341;29;19918;-70
2022/02/10 21:27:25;;;;;;;;;;;;;;;5.27;78.33;99311.06;4916241;29;19919;-70
2022/02/10 21:29:56;;;;;;;;;;;;;;;5.33;78.46;99305.13;4916255;29;19918;-70
2022/02/10 21:32:21;;;;;;;;;;;;;;;5.45;78.45;99309.53;4921004;29;19919;-70
2022/02/10 21:35:03;;;;;;;;;;;;;;;5.57;77.36;99304.53;4930190;29;19911;-70
2022/02/10 21:37:28;;;;;;;;;;;;;;;5.55;77.31;99311.34;4916156;29;20356;-70
2022/02/10 21:40:09;;;;;;;;;;;;;;;5.46;76.91;99306.09;4916472;29;19919;-70
2022/02/10 21:45:49;;;;;;;;;;;;;;;5.53;77.23;99300.19;4916221;29;20291;-70
2022/02/10 21:52:35;;;;;;;;;;;;;;;5.53;77.13;99290.78;4916044;29;20360;-70
2022/02/10 22:20:59;;;;;;;;;;;;;;;5.78;78.83;99258.44;4938566;29;19915;-69
2022/02/10 22:23:27;;;;;;;;;;;;;;;5.72;79.12;99253.25;4938508;29;19958;-70
2022/02/10 22:25:57;;;;;;;;;;;;;;;5.75;79.63;99250.69;4938232;29;19921;-69
2022/02/10 22:30:55;;;;;;;;;;;;;;;5.68;79.80;99238.66;4938288;29;19915;-70
2022/02/10 22:33:46;;;;;;;;;;;;;;;5.68;78.99;99251.50;4932411;29;19962;-70
2022/02/10 22:36:14;;;;;;;;;;;;;;;5.62;79.38;99246.31;4934842;29;20320;-70
2022/02/10 22:38:39;;;;;;;;;;;;;;;5.58;79.81;99245.41;4938432;29;19910;-70
2022/02/10 22:41:12;;;;;;;;;;;;;;;5.62;79.38;99243.75;4937950;29;20367;-70
2022/02/10 22:43:38;;;;;;;;;;;;;;;5.62;79.09;99243.75;4938182;29;19911;-70
2022/02/10 22:46:04;;;;;;;;;;;;;;;5.52;79.48;99249.66;4938024;29;19915;-70
2022/02/10 22:48:29;;;;;;;;;;;;;;;5.51;79.30;99260.75;4937937;29;19958;-70
2022/02/10 22:50:54;;;;;;;;;;;;;;;5.57;78.70;99258.28;4938153;29;20399;-70
2022/02/10 22:53:19;;;;;;;;;;;;;;;5.46;79.50;99254.72;4938134;29;19917;-70
2022/02/10 22:55:44;;;;;;;;;;;;;;;5.51;79.75;99255.63;4937787;29;19915;-69
2022/02/10 22:58:10;;;;;;;;;;;;;;;5.64;80.27;99255.75;4937780;29;19921;-70
2022/02/10 23:00:36;;;;;;;;;;;;;;;5.57;79.64;99259.13;4938141;29;19915;-69
2022/02/10 23:03:01;;;;;;;;;;;;;;;5.59;79.78;99251.41;4933134;29;19915;-70
2022/02/10 23:05:26;;;;;;;;;;;;;;;5.66;80.43;99251.50;4929737;29;19914;-70
2022/02/10 23:07:57;;;;;;;;;;;;;;;5.77;80.07;99251.59;4937547;29;20374;-70
2022/02/10 23:10:42;;;;;;;;;;;;;;;5.75;79.38;99240.41;4937623;29;19917;-69
2022/02/10 23:13:08;;;;;;;;;;;;;;;5.88;79.45;99236.25;4937540;29;19915;-70
2022/02/10 23:15:37;;;;;;;;;;;;;;;5.83;79.11;99238.78;4937535;29;19918;-69
2022/02/10 23:18:07;;;;;;;;;;;;;;;5.71;78.67;99236.13;4937422;29;20356;-69
2022/02/10 23:20:32;;;;;;;;;;;;;;;5.65;79.73;99230.91;4936993;29;19915;-69
2022/02/10 23:22:57;;;;;;;;;;;;;;;5.55;80.16;99234.25;4937469;29;19918;-70
2022/02/10 23:25:27;;;;;;;;;;;;;;;5.44;80.37;99233.28;4937505;29;20371;-70
2022/02/10 23:27:52;;;;;;;;;;;;;;;5.41;80.61;99228.97;4937191;29;19917;-69
2022/02/10 23:32:42;;;;;;;;;;;;;;;5.36;80.80;99241.75;4945432;23;19923;-70
2022/02/10 23:35:19;;;;;;;;;;;;;;;5.38;81.66;99242.66;4928335;29;19914;-70
2022/02/10 23:37:45;;;;;;;;;;;;;;;5.38;81.78;99237.53;4936109;29;19911;-70
2022/02/10 23:40:10;;;;;;;;;;;;;;;5.40;81.50;99240.94;4936009;29;20455;-70
2022/02/10 23:42:36;;;;;;;;;;;;;;;5.37;81.31;99240.09;4935957;29;20387;-69
2022/02/10 23:45:11;;;;;;;;;;;;;;;5.32;81.96;99232.31;4936037;29;19961;-70
2022/02/10 23:47:36;;;;;;;;;;;;;;;5.35;82.97;99242.63;4936288;29;19957;-70
2022/02/10 23:50:02;;;;;;;;;;;;;;;5.36;82.46;99228.06;4936004;29;19911;-70
2022/02/10 23:52:27;;;;;;;;;;;;;;;5.43;81.77;99223.84;4935938;29;19917;-70
2022/02/10 23:54:58;;;;;;;;;;;;;;;5.46;82.03;99229.00;4935783;29;19917;-70
2022/02/10 23:57:43;;;;;;;;;;;;;;;5.50;82.38;99225.63;4935887;29;20368;-70
